sensor_id;sensor_type;location;lat;lon;timestamp;P1;durP1;ratioP1;P2;durP2;ratioP2
16737;SDS011;17906;47.684;10.806;2022-07-23T00:01:08;12.20;;;9.23;;
16737;SDS011;17906;47.684;10.806;2022-07-23T00:03:35;12.57;;;8.85;;
16737;SDS011;17906;47.684;10.806;2022-07-23T00:06:01;12.82;;;9.13;;
16737;SDS011;17906;47.684;10.806;2022-07-23T00:08:29;12.25;;;8.63;;
16737;SDS011;17906;47.684;10.806;2022-07-23T00:10:56;14.07;;;9.02;;
16737;SDS011;17906;47.684;10.806;2022-07-23T00:13:22;13.27;;;8.82;;
16737;SDS011;17906;47.684;10.806;2022-07-23T00:15:49;13.05;;;9.40;;
16737;SDS011;17906;47.684;10.806;2022-07-23T00:18:15;12.63;;;9.30;;
16737;SDS011;17906;47.684;10.806;2022-07-23T00:20:42;11.80;;;9.48;;
16737;SDS011;17906;47.684;10.806;2022-07-23T00:23:09;12.00;;;9.60;;
16737;SDS011;17906;47.684;10.806;2022-07-23T00:25:36;12.23;;;9.18;;
16737;SDS011;17906;47.684;10.806;2022-07-23T00:28:03;12.27;;;8.88;;
16737;SDS011;17906;47.684;10.806;2022-07-23T00:30:30;13.32;;;9.23;;
16737;SDS011;17906;47.684;10.806;2022-07-23T00:32:59;11.63;;;9.52;;
16737;SDS011;17906;47.684;10.806;2022-07-23T00:35:29;14.05;;;9.60;;
16737;SDS011;17906;47.684;10.806;2022-07-23T00:37:57;14.73;;;9.13;;
16737;SDS011;17906;47.684;10.806;2022-07-23T00:40:25;12.85;;;7.88;;
16737;SDS011;17906;47.684;10.806;2022-07-23T00:42:54;16.45;;;8.13;;
16737;SDS011;17906;47.684;10.806;2022-07-23T00:45:20;9.05;;;7.13;;
16737;SDS011;17906;47.684;10.806;2022-07-23T00:47:47;9.50;;;7.18;;
16737;SDS011;17906;47.684;10.806;2022-07-23T00:50:14;11.27;;;6.47;;
16737;SDS011;17906;47.684;10.806;2022-07-23T00:52:41;11.20;;;6.38;;
16737;SDS011;17906;47.684;10.806;2022-07-23T00:55:08;10.70;;;6.65;;
16737;SDS011;17906;47.684;10.806;2022-07-23T00:57:36;8.80;;;5.97;;
16737;SDS011;17906;47.684;10.806;2022-07-23T01:00:06;9.05;;;5.97;;
16737;SDS011;17906;47.684;10.806;2022-07-23T01:02:35;9.00;;;6.20;;
16737;SDS011;17906;47.684;10.806;2022-07-23T01:05:02;8.60;;;5.88;;
16737;SDS011;17906;47.684;10.806;2022-07-23T01:07:29;11.20;;;5.85;;
16737;SDS011;17906;47.684;10.806;2022-07-23T01:09:56;7.55;;;5.82;;
16737;SDS011;17906;47.684;10.806;2022-07-23T01:12:24;9.00;;;6.07;;
16737;SDS011;17906;47.684;10.806;2022-07-23T01:14:53;16.20;;;6.05;;
16737;SDS011;17906;47.684;10.806;2022-07-23T01:17:21;9.48;;;5.95;;
16737;SDS011;17906;47.684;10.806;2022-07-23T01:19:48;7.90;;;5.97;;
16737;SDS011;17906;47.684;10.806;2022-07-23T01:22:15;11.10;;;6.18;;
16737;SDS011;17906;47.684;10.806;2022-07-23T01:24:47;11.90;;;6.75;;
16737;SDS011;17906;47.684;10.806;2022-07-23T01:27:14;7.93;;;6.00;;
16737;SDS011;17906;47.684;10.806;2022-07-23T01:29:42;10.65;;;5.82;;
16737;SDS011;17906;47.684;10.806;2022-07-23T01:32:09;7.80;;;5.82;;
16737;SDS011;17906;47.684;10.806;2022-07-23T01:34:35;12.77;;;6.85;;
16737;SDS011;17906;47.684;10.806;2022-07-23T01:37:02;11.50;;;6.53;;
16737;SDS011;17906;47.684;10.806;2022-07-23T01:39:29;11.25;;;6.50;;
16737;SDS011;17906;47.684;10.806;2022-07-23T01:41:57;12.48;;;6.88;;
16737;SDS011;17906;47.684;10.806;2022-07-23T01:44:23;10.35;;;6.47;;
16737;SDS011;17906;47.684;10.806;2022-07-23T01:46:50;9.65;;;6.72;;
16737;SDS011;17906;47.684;10.806;2022-07-23T01:49:17;9.63;;;6.60;;
16737;SDS011;17906;47.684;10.806;2022-07-23T01:51:43;8.80;;;6.70;;
16737;SDS011;17906;47.684;10.806;2022-07-23T01:54:24;12.15;;;6.80;;
16737;SDS011;17906;47.684;10.806;2022-07-23T01:56:51;9.73;;;6.65;;
16737;SDS011;17906;47.684;10.806;2022-07-23T01:59:19;9.15;;;6.60;;
16737;SDS011;17906;47.684;10.806;2022-07-23T02:01:45;8.90;;;7.30;;
16737;SDS011;17906;47.684;10.806;2022-07-23T02:04:12;10.25;;;7.55;;
16737;SDS011;17906;47.684;10.806;2022-07-23T02:06:39;8.90;;;6.72;;
16737;SDS011;17906;47.684;10.806;2022-07-23T02:09:05;9.68;;;7.07;;
16737;SDS011;17906;47.684;10.806;2022-07-23T02:11:32;14.27;;;7.35;;
16737;SDS011;17906;47.684;10.806;2022-07-23T02:13:59;10.38;;;7.20;;
16737;SDS011;17906;47.684;10.806;2022-07-23T02:16:27;9.68;;;6.97;;
16737;SDS011;17906;47.684;10.806;2022-07-23T02:18:54;10.02;;;7.38;;
16737;SDS011;17906;47.684;10.806;2022-07-23T02:21:21;13.73;;;7.28;;
16737;SDS011;17906;47.684;10.806;2022-07-23T02:23:47;10.38;;;7.28;;
16737;SDS011;17906;47.684;10.806;2022-07-23T02:26:14;10.05;;;6.88;;
16737;SDS011;17906;47.684;10.806;2022-07-23T02:28:41;9.32;;;6.95;;
16737;SDS011;17906;47.684;10.806;2022-07-23T02:31:08;10.88;;;6.85;;
16737;SDS011;17906;47.684;10.806;2022-07-23T02:33:35;13.90;;;7.72;;
16737;SDS011;17906;47.684;10.806;2022-07-23T02:36:02;9.95;;;7.15;;
16737;SDS011;17906;47.684;10.806;2022-07-23T02:38:30;10.80;;;6.95;;
16737;SDS011;17906;47.684;10.806;2022-07-23T02:40:56;10.15;;;6.65;;
16737;SDS011;17906;47.684;10.806;2022-07-23T02:43:23;10.10;;;7.55;;
16737;SDS011;17906;47.684;10.806;2022-07-23T02:45:50;14.23;;;7.38;;
16737;SDS011;17906;47.684;10.806;2022-07-23T02:48:16;11.68;;;7.20;;
16737;SDS011;17906;47.684;10.806;2022-07-23T02:50:44;8.00;;;6.80;;
16737;SDS011;17906;47.684;10.806;2022-07-23T02:53:11;11.95;;;7.38;;
16737;SDS011;17906;47.684;10.806;2022-07-23T02:55:37;12.52;;;7.28;;
16737;SDS011;17906;47.684;10.806;2022-07-23T02:58:04;11.68;;;7.35;;
16737;SDS011;17906;47.684;10.806;2022-07-23T03:00:30;13.98;;;7.63;;
16737;SDS011;17906;47.684;10.806;2022-07-23T03:02:57;9.00;;;5.80;;
16737;SDS011;17906;47.684;10.806;2022-07-23T03:05:23;7.97;;;5.22;;
16737;SDS011;17906;47.684;10.806;2022-07-23T03:07:51;9.40;;;5.88;;
16737;SDS011;17906;47.684;10.806;2022-07-23T03:10:18;8.88;;;5.82;;
16737;SDS011;17906;47.684;10.806;2022-07-23T03:12:45;9.38;;;6.72;;
16737;SDS011;17906;47.684;10.806;2022-07-23T03:15:11;8.50;;;6.28;;
16737;SDS011;17906;47.684;10.806;2022-07-23T03:17:38;9.05;;;6.60;;
16737;SDS011;17906;47.684;10.806;2022-07-23T03:20:05;11.43;;;6.82;;
16737;SDS011;17906;47.684;10.806;2022-07-23T03:22:32;9.65;;;6.40;;
16737;SDS011;17906;47.684;10.806;2022-07-23T03:25:00;10.05;;;6.75;;
16737;SDS011;17906;47.684;10.806;2022-07-23T03:27:28;10.35;;;6.78;;
16737;SDS011;17906;47.684;10.806;2022-07-23T03:29:57;9.20;;;6.88;;
16737;SDS011;17906;47.684;10.806;2022-07-23T03:32:25;9.65;;;7.25;;
16737;SDS011;17906;47.684;10.806;2022-07-23T03:34:51;11.63;;;6.85;;
16737;SDS011;17906;47.684;10.806;2022-07-23T03:37:19;11.55;;;8.00;;
16737;SDS011;17906;47.684;10.806;2022-07-23T03:39:46;12.68;;;7.50;;
16737;SDS011;17906;47.684;10.806;2022-07-23T03:42:14;10.93;;;7.40;;
16737;SDS011;17906;47.684;10.806;2022-07-23T03:44:40;12.23;;;7.97;;
16737;SDS011;17906;47.684;10.806;2022-07-23T03:47:07;67.53;;;45.42;;
16737;SDS011;17906;47.684;10.806;2022-07-23T03:49:33;65.40;;;44.60;;
16737;SDS011;17906;47.684;10.806;2022-07-23T03:52:00;25.90;;;17.13;;
16737;SDS011;17906;47.684;10.806;2022-07-23T03:54:27;16.95;;;12.65;;
16737;SDS011;17906;47.684;10.806;2022-07-23T03:56:54;24.27;;;15.30;;
16737;SDS011;17906;47.684;10.806;2022-07-23T03:59:22;12.88;;;9.20;;
16737;SDS011;17906;47.684;10.806;2022-07-23T04:01:48;12.38;;;8.65;;
16737;SDS011;17906;47.684;10.806;2022-07-23T04:04:15;11.15;;;7.57;;
16737;SDS011;17906;47.684;10.806;2022-07-23T04:06:41;14.93;;;8.32;;
16737;SDS011;17906;47.684;10.806;2022-07-23T04:09:08;13.70;;;8.18;;
16737;SDS011;17906;47.684;10.806;2022-07-23T04:11:34;9.75;;;7.47;;
16737;SDS011;17906;47.684;10.806;2022-07-23T04:14:01;11.88;;;7.35;;
16737;SDS011;17906;47.684;10.806;2022-07-23T04:16:29;11.73;;;7.82;;
16737;SDS011;17906;47.684;10.806;2022-07-23T04:18:56;10.75;;;8.20;;
16737;SDS011;17906;47.684;10.806;2022-07-23T04:21:23;11.43;;;7.57;;
16737;SDS011;17906;47.684;10.806;2022-07-23T04:23:49;9.70;;;7.45;;
16737;SDS011;17906;47.684;10.806;2022-07-23T04:26:16;11.77;;;7.72;;
16737;SDS011;17906;47.684;10.806;2022-07-23T04:28:43;9.77;;;7.35;;
16737;SDS011;17906;47.684;10.806;2022-07-23T04:31:10;10.63;;;7.72;;
16737;SDS011;17906;47.684;10.806;2022-07-23T04:33:38;10.45;;;7.53;;
16737;SDS011;17906;47.684;10.806;2022-07-23T04:36:05;11.57;;;7.10;;
16737;SDS011;17906;47.684;10.806;2022-07-23T04:38:32;9.38;;;7.43;;
16737;SDS011;17906;47.684;10.806;2022-07-23T04:40:58;11.75;;;7.45;;
16737;SDS011;17906;47.684;10.806;2022-07-23T04:43:25;10.70;;;7.70;;
16737;SDS011;17906;47.684;10.806;2022-07-23T04:45:52;11.55;;;7.95;;
16737;SDS011;17906;47.684;10.806;2022-07-23T04:48:18;13.10;;;7.35;;
16737;SDS011;17906;47.684;10.806;2022-07-23T04:50:46;12.43;;;7.32;;
16737;SDS011;17906;47.684;10.806;2022-07-23T04:53:13;11.52;;;8.13;;
16737;SDS011;17906;47.684;10.806;2022-07-23T04:55:39;10.07;;;7.10;;
16737;SDS011;17906;47.684;10.806;2022-07-23T04:58:06;10.85;;;7.78;;
16737;SDS011;17906;47.684;10.806;2022-07-23T05:00:32;11.27;;;8.13;;
16737;SDS011;17906;47.684;10.806;2022-07-23T05:02:59;11.65;;;8.00;;
16737;SDS011;17906;47.684;10.806;2022-07-23T05:05:26;10.32;;;7.72;;
16737;SDS011;17906;47.684;10.806;2022-07-23T05:07:53;11.07;;;7.47;;
16737;SDS011;17906;47.684;10.806;2022-07-23T05:10:20;12.38;;;7.82;;
16737;SDS011;17906;47.684;10.806;2022-07-23T05:12:47;12.70;;;8.45;;
16737;SDS011;17906;47.684;10.806;2022-07-23T05:15:13;10.95;;;8.27;;
16737;SDS011;17906;47.684;10.806;2022-07-23T05:17:40;12.50;;;8.77;;
16737;SDS011;17906;47.684;10.806;2022-07-23T05:20:06;12.18;;;8.38;;
16737;SDS011;17906;47.684;10.806;2022-07-23T05:22:33;11.18;;;8.02;;
16737;SDS011;17906;47.684;10.806;2022-07-23T05:25:01;11.35;;;8.48;;
16737;SDS011;17906;47.684;10.806;2022-07-23T05:27:29;12.73;;;9.27;;
16737;SDS011;17906;47.684;10.806;2022-07-23T05:29:56;12.18;;;7.93;;
16737;SDS011;17906;47.684;10.806;2022-07-23T05:32:23;12.27;;;8.02;;
16737;SDS011;17906;47.684;10.806;2022-07-23T05:34:50;11.20;;;7.95;;
16737;SDS011;17906;47.684;10.806;2022-07-23T05:37:16;13.30;;;8.05;;
16737;SDS011;17906;47.684;10.806;2022-07-23T05:39:43;12.65;;;8.73;;
16737;SDS011;17906;47.684;10.806;2022-07-23T05:42:11;10.38;;;7.68;;
16737;SDS011;17906;47.684;10.806;2022-07-23T05:44:38;10.57;;;7.53;;
16737;SDS011;17906;47.684;10.806;2022-07-23T05:47:04;10.18;;;7.68;;
16737;SDS011;17906;47.684;10.806;2022-07-23T05:49:31;9.23;;;6.95;;
16737;SDS011;17906;47.684;10.806;2022-07-23T05:51:57;10.23;;;8.25;;
16737;SDS011;17906;47.684;10.806;2022-07-23T05:54:24;13.35;;;8.50;;
16737;SDS011;17906;47.684;10.806;2022-07-23T05:56:51;10.65;;;8.30;;
16737;SDS011;17906;47.684;10.806;2022-07-23T05:59:19;13.50;;;8.38;;
16737;SDS011;17906;47.684;10.806;2022-07-23T06:01:45;12.50;;;9.40;;
16737;SDS011;17906;47.684;10.806;2022-07-23T06:04:12;11.75;;;9.05;;
16737;SDS011;17906;47.684;10.806;2022-07-23T06:06:38;12.90;;;8.65;;
16737;SDS011;17906;47.684;10.806;2022-07-23T06:09:05;10.98;;;8.20;;
16737;SDS011;17906;47.684;10.806;2022-07-23T06:11:32;14.95;;;8.95;;
16737;SDS011;17906;47.684;10.806;2022-07-23T06:13:58;13.43;;;9.30;;
16737;SDS011;17906;47.684;10.806;2022-07-23T06:16:26;11.80;;;8.23;;
16737;SDS011;17906;47.684;10.806;2022-07-23T06:18:53;13.35;;;9.18;;
16737;SDS011;17906;47.684;10.806;2022-07-23T06:21:19;12.82;;;8.75;;
16737;SDS011;17906;47.684;10.806;2022-07-23T06:23:46;12.50;;;8.55;;
16737;SDS011;17906;47.684;10.806;2022-07-23T06:26:12;13.98;;;9.05;;
16737;SDS011;17906;47.684;10.806;2022-07-23T06:28:39;11.85;;;8.98;;
16737;SDS011;17906;47.684;10.806;2022-07-23T06:31:05;12.60;;;8.85;;
16737;SDS011;17906;47.684;10.806;2022-07-23T06:33:34;12.10;;;8.90;;
16737;SDS011;17906;47.684;10.806;2022-07-23T06:36:00;12.70;;;9.30;;
16737;SDS011;17906;47.684;10.806;2022-07-23T06:38:27;12.52;;;8.85;;
16737;SDS011;17906;47.684;10.806;2022-07-23T06:40:53;11.80;;;8.25;;
16737;SDS011;17906;47.684;10.806;2022-07-23T06:43:20;11.23;;;8.80;;
16737;SDS011;17906;47.684;10.806;2022-07-23T06:45:46;20.60;;;8.65;;
16737;SDS011;17906;47.684;10.806;2022-07-23T06:48:13;11.15;;;8.85;;
16737;SDS011;17906;47.684;10.806;2022-07-23T06:50:41;11.43;;;9.23;;
16737;SDS011;17906;47.684;10.806;2022-07-23T06:53:07;10.98;;;8.60;;
16737;SDS011;17906;47.684;10.806;2022-07-23T06:55:34;10.65;;;8.60;;
16737;SDS011;17906;47.684;10.806;2022-07-23T06:58:03;13.30;;;9.68;;
16737;SDS011;17906;47.684;10.806;2022-07-23T07:00:30;12.00;;;9.10;;
16737;SDS011;17906;47.684;10.806;2022-07-23T07:02:57;12.88;;;10.05;;
16737;SDS011;17906;47.684;10.806;2022-07-23T07:05:24;16.60;;;11.88;;
16737;SDS011;17906;47.684;10.806;2022-07-23T07:07:53;10.82;;;9.00;;
16737;SDS011;17906;47.684;10.806;2022-07-23T07:10:20;10.65;;;8.77;;
16737;SDS011;17906;47.684;10.806;2022-07-23T07:12:47;13.00;;;9.70;;
16737;SDS011;17906;47.684;10.806;2022-07-23T07:15:14;12.32;;;8.82;;
16737;SDS011;17906;47.684;10.806;2022-07-23T07:17:41;11.38;;;9.02;;
16737;SDS011;17906;47.684;10.806;2022-07-23T07:20:08;13.15;;;9.10;;
16737;SDS011;17906;47.684;10.806;2022-07-23T07:22:36;11.02;;;8.57;;
16737;SDS011;17906;47.684;10.806;2022-07-23T07:25:04;11.15;;;8.30;;
16737;SDS011;17906;47.684;10.806;2022-07-23T07:27:31;13.35;;;9.70;;
16737;SDS011;17906;47.684;10.806;2022-07-23T07:29:58;11.50;;;8.90;;
16737;SDS011;17906;47.684;10.806;2022-07-23T07:32:25;12.52;;;8.90;;
16737;SDS011;17906;47.684;10.806;2022-07-23T07:34:51;13.20;;;8.30;;
16737;SDS011;17906;47.684;10.806;2022-07-23T07:37:18;11.73;;;8.00;;
16737;SDS011;17906;47.684;10.806;2022-07-23T07:39:44;11.85;;;8.35;;
16737;SDS011;17906;47.684;10.806;2022-07-23T07:42:12;9.90;;;7.65;;
16737;SDS011;17906;47.684;10.806;2022-07-23T07:44:40;9.70;;;8.18;;
16737;SDS011;17906;47.684;10.806;2022-07-23T07:47:07;11.13;;;7.47;;
16737;SDS011;17906;47.684;10.806;2022-07-23T07:49:33;11.52;;;8.25;;
16737;SDS011;17906;47.684;10.806;2022-07-23T07:52:00;10.02;;;7.80;;
16737;SDS011;17906;47.684;10.806;2022-07-23T07:54:27;9.45;;;7.35;;
16737;SDS011;17906;47.684;10.806;2022-07-23T07:56:53;10.20;;;6.70;;
16737;SDS011;17906;47.684;10.806;2022-07-23T07:59:21;12.57;;;7.55;;
16737;SDS011;17906;47.684;10.806;2022-07-23T08:01:48;10.65;;;7.65;;
16737;SDS011;17906;47.684;10.806;2022-07-23T08:04:14;8.65;;;7.30;;
16737;SDS011;17906;47.684;10.806;2022-07-23T08:06:41;13.93;;;7.47;;
16737;SDS011;17906;47.684;10.806;2022-07-23T08:09:08;10.02;;;7.55;;
16737;SDS011;17906;47.684;10.806;2022-07-23T08:11:34;7.88;;;6.60;;
16737;SDS011;17906;47.684;10.806;2022-07-23T08:14:01;10.63;;;7.18;;
16737;SDS011;17906;47.684;10.806;2022-07-23T08:16:29;10.30;;;7.18;;
16737;SDS011;17906;47.684;10.806;2022-07-23T08:18:55;10.45;;;7.00;;
16737;SDS011;17906;47.684;10.806;2022-07-23T08:21:22;7.97;;;6.53;;
16737;SDS011;17906;47.684;10.806;2022-07-23T08:23:48;8.07;;;6.57;;
16737;SDS011;17906;47.684;10.806;2022-07-23T08:26:15;10.27;;;7.35;;
16737;SDS011;17906;47.684;10.806;2022-07-23T08:28:42;9.68;;;6.78;;
16737;SDS011;17906;47.684;10.806;2022-07-23T08:31:08;8.38;;;6.65;;
16737;SDS011;17906;47.684;10.806;2022-07-23T08:33:38;11.05;;;7.03;;
16737;SDS011;17906;47.684;10.806;2022-07-23T08:36:04;8.60;;;7.40;;
16737;SDS011;17906;47.684;10.806;2022-07-23T08:38:32;12.23;;;7.45;;
16737;SDS011;17906;47.684;10.806;2022-07-23T08:41:00;9.10;;;7.07;;
16737;SDS011;17906;47.684;10.806;2022-07-23T08:43:31;8.93;;;6.78;;
16737;SDS011;17906;47.684;10.806;2022-07-23T08:46:00;10.93;;;7.43;;
16737;SDS011;17906;47.684;10.806;2022-07-23T08:48:27;10.90;;;7.57;;
16737;SDS011;17906;47.684;10.806;2022-07-23T08:50:57;9.05;;;7.25;;
16737;SDS011;17906;47.684;10.806;2022-07-23T08:53:25;11.55;;;7.57;;
16737;SDS011;17906;47.684;10.806;2022-07-23T08:55:53;8.70;;;7.07;;
16737;SDS011;17906;47.684;10.806;2022-07-23T08:58:20;8.15;;;6.97;;
16737;SDS011;17906;47.684;10.806;2022-07-23T09:00:47;9.88;;;6.95;;
16737;SDS011;17906;47.684;10.806;2022-07-23T09:03:15;8.98;;;6.90;;
16737;SDS011;17906;47.684;10.806;2022-07-23T09:05:43;11.00;;;7.60;;
16737;SDS011;17906;47.684;10.806;2022-07-23T09:08:12;7.55;;;6.70;;
16737;SDS011;17906;47.684;10.806;2022-07-23T09:10:44;9.98;;;7.68;;
16737;SDS011;17906;47.684;10.806;2022-07-23T09:13:29;8.98;;;7.32;;
16737;SDS011;17906;47.684;10.806;2022-07-23T09:15:59;10.15;;;7.65;;
16737;SDS011;17906;47.684;10.806;2022-07-23T09:18:34;11.18;;;7.22;;
16737;SDS011;17906;47.684;10.806;2022-07-23T09:21:08;9.57;;;7.28;;
16737;SDS011;17906;47.684;10.806;2022-07-23T09:23:38;10.75;;;7.78;;
16737;SDS011;17906;47.684;10.806;2022-07-23T09:26:26;9.35;;;7.30;;
16737;SDS011;17906;47.684;10.806;2022-07-23T09:28:59;9.35;;;6.80;;
16737;SDS011;17906;47.684;10.806;2022-07-23T09:31:31;9.30;;;7.20;;
16737;SDS011;17906;47.684;10.806;2022-07-23T09:34:10;8.98;;;7.03;;
16737;SDS011;17906;47.684;10.806;2022-07-23T09:36:38;8.45;;;7.03;;
16737;SDS011;17906;47.684;10.806;2022-07-23T09:39:06;8.63;;;7.18;;
16737;SDS011;17906;47.684;10.806;2022-07-23T09:41:35;8.23;;;7.03;;
16737;SDS011;17906;47.684;10.806;2022-07-23T09:44:10;9.68;;;7.07;;
16737;SDS011;17906;47.684;10.806;2022-07-23T09:46:38;8.45;;;6.50;;
16737;SDS011;17906;47.684;10.806;2022-07-23T09:49:12;9.10;;;6.70;;
16737;SDS011;17906;47.684;10.806;2022-07-23T09:51:44;10.80;;;7.43;;
16737;SDS011;17906;47.684;10.806;2022-07-23T09:54:21;9.35;;;7.00;;
16737;SDS011;17906;47.684;10.806;2022-07-23T09:56:55;9.77;;;6.63;;
16737;SDS011;17906;47.684;10.806;2022-07-23T09:59:23;8.73;;;6.53;;
16737;SDS011;17906;47.684;10.806;2022-07-23T10:01:51;9.40;;;7.03;;
16737;SDS011;17906;47.684;10.806;2022-07-23T10:04:19;9.55;;;6.57;;
16737;SDS011;17906;47.684;10.806;2022-07-23T10:06:48;9.10;;;6.57;;
16737;SDS011;17906;47.684;10.806;2022-07-23T10:09:18;9.05;;;6.72;;
16737;SDS011;17906;47.684;10.806;2022-07-23T10:11:50;10.23;;;6.78;;
16737;SDS011;17906;47.684;10.806;2022-07-23T10:14:19;12.25;;;6.90;;
16737;SDS011;17906;47.684;10.806;2022-07-23T10:16:47;9.73;;;6.88;;
16737;SDS011;17906;47.684;10.806;2022-07-23T10:19:14;8.00;;;6.22;;
16737;SDS011;17906;47.684;10.806;2022-07-23T10:21:44;8.15;;;6.20;;
16737;SDS011;17906;47.684;10.806;2022-07-23T10:24:16;10.90;;;7.22;;
16737;SDS011;17906;47.684;10.806;2022-07-23T10:26:54;11.73;;;7.72;;
16737;SDS011;17906;47.684;10.806;2022-07-23T10:29:34;9.40;;;7.32;;
16737;SDS011;17906;47.684;10.806;2022-07-23T10:32:09;10.68;;;7.70;;
16737;SDS011;17906;47.684;10.806;2022-07-23T10:34:49;10.55;;;7.85;;
16737;SDS011;17906;47.684;10.806;2022-07-23T10:37:21;13.55;;;8.05;;
16737;SDS011;17906;47.684;10.806;2022-07-23T10:40:08;11.75;;;7.82;;
16737;SDS011;17906;47.684;10.806;2022-07-23T10:42:37;12.90;;;8.15;;
16737;SDS011;17906;47.684;10.806;2022-07-23T10:47:49;9.88;;;8.00;;
16737;SDS011;17906;47.684;10.806;2022-07-23T10:50:17;12.25;;;7.78;;
16737;SDS011;17906;47.684;10.806;2022-07-23T10:55:43;10.75;;;7.78;;
16737;SDS011;17906;47.684;10.806;2022-07-23T10:58:23;10.77;;;7.70;;
16737;SDS011;17906;47.684;10.806;2022-07-23T11:03:59;11.40;;;7.20;;
16737;SDS011;17906;47.684;10.806;2022-07-23T11:09:26;8.68;;;7.28;;
16737;SDS011;17906;47.684;10.806;2022-07-23T11:15:01;9.52;;;6.32;;
16737;SDS011;17906;47.684;10.806;2022-07-23T11:17:30;10.52;;;7.30;;
16737;SDS011;17906;47.684;10.806;2022-07-23T11:20:13;9.98;;;6.50;;
16737;SDS011;17906;47.684;10.806;2022-07-23T11:22:49;9.70;;;6.53;;
16737;SDS011;17906;47.684;10.806;2022-07-23T11:25:34;12.20;;;7.15;;
16737;SDS011;17906;47.684;10.806;2022-07-23T11:28:08;8.98;;;6.18;;
16737;SDS011;17906;47.684;10.806;2022-07-23T11:30:38;7.85;;;6.15;;
16737;SDS011;17906;47.684;10.806;2022-07-23T11:33:18;10.18;;;6.65;;
16737;SDS011;17906;47.684;10.806;2022-07-23T11:35:47;7.15;;;5.10;;
16737;SDS011;17906;47.684;10.806;2022-07-23T11:38:16;6.38;;;5.65;;
16737;SDS011;17906;47.684;10.806;2022-07-23T11:40:44;7.05;;;5.80;;
16737;SDS011;17906;47.684;10.806;2022-07-23T11:43:13;7.30;;;5.22;;
16737;SDS011;17906;47.684;10.806;2022-07-23T11:45:42;6.88;;;4.70;;
16737;SDS011;17906;47.684;10.806;2022-07-23T11:48:15;7.28;;;4.72;;
16737;SDS011;17906;47.684;10.806;2022-07-23T11:50:43;8.77;;;5.80;;
16737;SDS011;17906;47.684;10.806;2022-07-23T11:53:10;6.03;;;4.90;;
16737;SDS011;17906;47.684;10.806;2022-07-23T11:55:36;6.97;;;4.97;;
16737;SDS011;17906;47.684;10.806;2022-07-23T11:58:03;7.75;;;4.68;;
16737;SDS011;17906;47.684;10.806;2022-07-23T12:00:30;5.20;;;4.70;;
16737;SDS011;17906;47.684;10.806;2022-07-23T12:03:00;6.03;;;4.97;;
16737;SDS011;17906;47.684;10.806;2022-07-23T12:05:29;7.03;;;5.05;;
16737;SDS011;17906;47.684;10.806;2022-07-23T12:07:58;7.13;;;5.00;;
16737;SDS011;17906;47.684;10.806;2022-07-23T12:10:26;6.32;;;5.15;;
16737;SDS011;17906;47.684;10.806;2022-07-23T12:12:55;7.50;;;5.40;;
16737;SDS011;17906;47.684;10.806;2022-07-23T12:15:23;8.93;;;5.32;;
16737;SDS011;17906;47.684;10.806;2022-07-23T12:17:51;9.57;;;5.45;;
16737;SDS011;17906;47.684;10.806;2022-07-23T12:20:21;6.57;;;5.22;;
16737;SDS011;17906;47.684;10.806;2022-07-23T12:22:50;9.63;;;5.45;;
16737;SDS011;17906;47.684;10.806;2022-07-23T12:25:18;10.07;;;5.70;;
16737;SDS011;17906;47.684;10.806;2022-07-23T12:27:57;7.10;;;5.25;;
16737;SDS011;17906;47.684;10.806;2022-07-23T12:30:25;6.18;;;5.07;;
16737;SDS011;17906;47.684;10.806;2022-07-23T12:32:54;7.93;;;5.20;;
16737;SDS011;17906;47.684;10.806;2022-07-23T12:35:29;7.20;;;4.80;;
16737;SDS011;17906;47.684;10.806;2022-07-23T12:37:59;8.57;;;5.13;;
16737;SDS011;17906;47.684;10.806;2022-07-23T12:40:28;9.43;;;5.25;;
16737;SDS011;17906;47.684;10.806;2022-07-23T12:42:56;7.53;;;5.47;;
16737;SDS011;17906;47.684;10.806;2022-07-23T12:45:25;5.25;;;4.75;;
16737;SDS011;17906;47.684;10.806;2022-07-23T12:47:56;7.88;;;5.15;;
16737;SDS011;17906;47.684;10.806;2022-07-23T12:50:34;7.82;;;5.35;;
16737;SDS011;17906;47.684;10.806;2022-07-23T12:53:05;8.45;;;5.63;;
16737;SDS011;17906;47.684;10.806;2022-07-23T12:55:34;6.93;;;4.93;;
16737;SDS011;17906;47.684;10.806;2022-07-23T12:58:05;7.95;;;5.57;;
16737;SDS011;17906;47.684;10.806;2022-07-23T13:03:24;8.32;;;5.25;;
16737;SDS011;17906;47.684;10.806;2022-07-23T13:05:54;7.30;;;5.38;;
16737;SDS011;17906;47.684;10.806;2022-07-23T13:08:21;9.15;;;5.78;;
16737;SDS011;17906;47.684;10.806;2022-07-23T13:10:48;7.15;;;5.57;;
16737;SDS011;17906;47.684;10.806;2022-07-23T13:13:16;7.10;;;5.63;;
16737;SDS011;17906;47.684;10.806;2022-07-23T13:15:43;6.00;;;5.32;;
16737;SDS011;17906;47.684;10.806;2022-07-23T13:18:10;7.40;;;5.53;;
16737;SDS011;17906;47.684;10.806;2022-07-23T13:20:37;8.52;;;5.65;;
16737;SDS011;17906;47.684;10.806;2022-07-23T13:23:06;6.43;;;5.28;;
16737;SDS011;17906;47.684;10.806;2022-07-23T13:25:33;9.80;;;6.30;;
16737;SDS011;17906;47.684;10.806;2022-07-23T13:27:59;7.32;;;5.85;;
16737;SDS011;17906;47.684;10.806;2022-07-23T13:30:26;8.50;;;5.68;;
16737;SDS011;17906;47.684;10.806;2022-07-23T13:32:53;7.32;;;5.60;;
16737;SDS011;17906;47.684;10.806;2022-07-23T13:35:20;9.43;;;5.88;;
16737;SDS011;17906;47.684;10.806;2022-07-23T13:37:47;8.93;;;6.53;;
16737;SDS011;17906;47.684;10.806;2022-07-23T13:40:15;7.43;;;6.22;;
16737;SDS011;17906;47.684;10.806;2022-07-23T13:42:42;7.25;;;5.95;;
16737;SDS011;17906;47.684;10.806;2022-07-23T13:45:10;7.03;;;5.90;;
16737;SDS011;17906;47.684;10.806;2022-07-23T13:47:36;9.35;;;6.45;;
16737;SDS011;17906;47.684;10.806;2022-07-23T13:50:03;9.10;;;5.95;;
16737;SDS011;17906;47.684;10.806;2022-07-23T13:52:31;7.18;;;5.80;;
16737;SDS011;17906;47.684;10.806;2022-07-23T13:54:58;7.03;;;6.00;;
16737;SDS011;17906;47.684;10.806;2022-07-23T13:57:26;8.00;;;6.20;;
16737;SDS011;17906;47.684;10.806;2022-07-23T13:59:53;9.45;;;5.60;;
16737;SDS011;17906;47.684;10.806;2022-07-23T14:02:19;8.68;;;6.05;;
16737;SDS011;17906;47.684;10.806;2022-07-23T14:04:46;8.73;;;5.57;;
16737;SDS011;17906;47.684;10.806;2022-07-23T14:07:13;8.15;;;6.22;;
16737;SDS011;17906;47.684;10.806;2022-07-23T14:09:41;9.40;;;6.57;;
16737;SDS011;17906;47.684;10.806;2022-07-23T14:12:08;8.65;;;5.97;;
16737;SDS011;17906;47.684;10.806;2022-07-23T14:14:36;8.95;;;6.63;;
16737;SDS011;17906;47.684;10.806;2022-07-23T14:17:02;7.35;;;5.97;;
16737;SDS011;17906;47.684;10.806;2022-07-23T14:19:29;7.60;;;6.20;;
16737;SDS011;17906;47.684;10.806;2022-07-23T14:21:56;7.90;;;5.90;;
16737;SDS011;17906;47.684;10.806;2022-07-23T14:24:22;8.85;;;6.07;;
16737;SDS011;17906;47.684;10.806;2022-07-23T14:26:49;10.77;;;6.25;;
16737;SDS011;17906;47.684;10.806;2022-07-23T14:29:15;7.50;;;5.72;;
16737;SDS011;17906;47.684;10.806;2022-07-23T14:31:43;9.95;;;6.20;;
16737;SDS011;17906;47.684;10.806;2022-07-23T14:34:10;7.45;;;5.82;;
16737;SDS011;17906;47.684;10.806;2022-07-23T14:36:37;10.32;;;6.32;;
16737;SDS011;17906;47.684;10.806;2022-07-23T14:39:04;8.48;;;6.22;;
16737;SDS011;17906;47.684;10.806;2022-07-23T14:41:33;7.75;;;6.32;;
16737;SDS011;17906;47.684;10.806;2022-07-23T14:44:00;8.68;;;6.47;;
16737;SDS011;17906;47.684;10.806;2022-07-23T14:46:26;8.38;;;5.93;;
16737;SDS011;17906;47.684;10.806;2022-07-23T14:48:55;9.55;;;5.97;;
16737;SDS011;17906;47.684;10.806;2022-07-23T14:51:22;10.30;;;6.43;;